sensor_id;sensor_type;location;lat;lon;timestamp;P1;durP1;ratioP1;P2;durP2;ratioP2
1446;SDS011;717;51.522;7.266;2022-10-16T00:00:21;3.65;;;1.90;;
1446;SDS011;717;51.522;7.266;2022-10-16T00:02:47;2.80;;;1.67;;
1446;SDS011;717;51.522;7.266;2022-10-16T00:05:14;3.45;;;1.83;;
1446;SDS011;717;51.522;7.266;2022-10-16T00:07:41;2.80;;;1.80;;
1446;SDS011;717;51.522;7.266;2022-10-16T00:10:08;2.75;;;1.60;;
1446;SDS011;717;51.522;7.266;2022-10-16T00:12:36;8.65;;;1.85;;
1446;SDS011;717;51.522;7.266;2022-10-16T00:15:03;3.50;;;1.80;;
1446;SDS011;717;51.522;7.266;2022-10-16T00:17:30;2.05;;;1.55;;
1446;SDS011;717;51.522;7.266;2022-10-16T00:19:57;2.72;;;1.33;;
1446;SDS011;717;51.522;7.266;2022-10-16T00:22:24;4.40;;;1.42;;
1446;SDS011;717;51.522;7.266;2022-10-16T00:24:51;3.38;;;1.38;;
1446;SDS011;717;51.522;7.266;2022-10-16T00:27:18;2.72;;;1.10;;
1446;SDS011;717;51.522;7.266;2022-10-16T00:29:48;2.67;;;1.23;;
1446;SDS011;717;51.522;7.266;2022-10-16T00:32:15;3.38;;;1.85;;
1446;SDS011;717;51.522;7.266;2022-10-16T00:34:42;1.33;;;1.23;;
1446;SDS011;717;51.522;7.266;2022-10-16T00:37:09;2.97;;;1.40;;
1446;SDS011;717;51.522;7.266;2022-10-16T00:39:36;3.33;;;1.42;;
1446;SDS011;717;51.522;7.266;2022-10-16T00:42:03;1.70;;;1.20;;
1446;SDS011;717;51.522;7.266;2022-10-16T00:44:43;1.45;;;1.17;;
1446;SDS011;717;51.522;7.266;2022-10-16T00:47:17;2.25;;;1.40;;
1446;SDS011;717;51.522;7.266;2022-10-16T00:49:47;2.42;;;1.15;;
1446;SDS011;717;51.522;7.266;2022-10-16T00:52:16;3.25;;;1.20;;
1446;SDS011;717;51.522;7.266;2022-10-16T00:54:44;1.65;;;1.17;;
1446;SDS011;717;51.522;7.266;2022-10-16T00:57:12;2.15;;;1.17;;
1446;SDS011;717;51.522;7.266;2022-10-16T00:59:40;3.50;;;1.00;;
1446;SDS011;717;51.522;7.266;2022-10-16T01:02:10;2.30;;;0.95;;
1446;SDS011;717;51.522;7.266;2022-10-16T01:04:38;2.95;;;1.35;;
1446;SDS011;717;51.522;7.266;2022-10-16T01:07:09;3.30;;;1.48;;
1446;SDS011;717;51.522;7.266;2022-10-16T01:09:43;1.88;;;1.27;;
1446;SDS011;717;51.522;7.266;2022-10-16T01:12:17;1.98;;;1.17;;
1446;SDS011;717;51.522;7.266;2022-10-16T01:14:53;2.65;;;1.23;;
1446;SDS011;717;51.522;7.266;2022-10-16T01:17:26;2.35;;;1.25;;
1446;SDS011;717;51.522;7.266;2022-10-16T01:22:50;1.70;;;1.00;;
1446;SDS011;717;51.522;7.266;2022-10-16T01:25:30;2.30;;;1.00;;
1446;SDS011;717;51.522;7.266;2022-10-16T01:28:20;2.58;;;1.30;;
1446;SDS011;717;51.522;7.266;2022-10-16T01:30:53;2.67;;;1.08;;
1446;SDS011;717;51.522;7.266;2022-10-16T01:33:24;2.10;;;1.10;;
1446;SDS011;717;51.522;7.266;2022-10-16T01:35:57;1.35;;;0.88;;
1446;SDS011;717;51.522;7.266;2022-10-16T01:38:29;2.85;;;1.02;;
1446;SDS011;717;51.522;7.266;2022-10-16T01:41:00;1.13;;;0.88;;
1446;SDS011;717;51.522;7.266;2022-10-16T01:43:35;1.42;;;1.00;;
1446;SDS011;717;51.522;7.266;2022-10-16T01:46:05;2.63;;;1.17;;
1446;SDS011;717;51.522;7.266;2022-10-16T01:48:33;1.30;;;0.98;;
1446;SDS011;717;51.522;7.266;2022-10-16T01:51:03;1.40;;;1.17;;
1446;SDS011;717;51.522;7.266;2022-10-16T01:53:32;2.60;;;1.10;;
1446;SDS011;717;51.522;7.266;2022-10-16T01:55:59;2.22;;;1.20;;
1446;SDS011;717;51.522;7.266;2022-10-16T01:58:28;2.60;;;1.10;;
1446;SDS011;717;51.522;7.266;2022-10-16T02:01:01;1.00;;;0.80;;
1446;SDS011;717;51.522;7.266;2022-10-16T02:03:30;2.28;;;1.10;;
1446;SDS011;717;51.522;7.266;2022-10-16T02:05:59;1.50;;;1.00;;
1446;SDS011;717;51.522;7.266;2022-10-16T02:08:27;2.25;;;1.40;;
1446;SDS011;717;51.522;7.266;2022-10-16T02:10:56;1.60;;;1.10;;
1446;SDS011;717;51.522;7.266;2022-10-16T02:13:25;2.92;;;1.48;;
1446;SDS011;717;51.522;7.266;2022-10-16T02:15:55;1.83;;;1.20;;
1446;SDS011;717;51.522;7.266;2022-10-16T02:18:23;2.15;;;1.10;;
1446;SDS011;717;51.522;7.266;2022-10-16T02:20:55;1.98;;;0.98;;
1446;SDS011;717;51.522;7.266;2022-10-16T02:23:28;1.73;;;1.10;;
1446;SDS011;717;51.522;7.266;2022-10-16T02:26:01;3.70;;;1.20;;
1446;SDS011;717;51.522;7.266;2022-10-16T02:28:31;1.10;;;0.98;;
1446;SDS011;717;51.522;7.266;2022-10-16T02:31:04;1.27;;;1.10;;
1446;SDS011;717;51.522;7.266;2022-10-16T02:33:36;1.85;;;1.35;;
1446;SDS011;717;51.522;7.266;2022-10-16T02:36:04;1.27;;;0.98;;
1446;SDS011;717;51.522;7.266;2022-10-16T02:38:31;2.15;;;1.10;;
1446;SDS011;717;51.522;7.266;2022-10-16T02:40:59;1.67;;;1.30;;
1446;SDS011;717;51.522;7.266;2022-10-16T02:43:26;1.83;;;1.00;;
1446;SDS011;717;51.522;7.266;2022-10-16T02:45:53;2.30;;;1.00;;
1446;SDS011;717;51.522;7.266;2022-10-16T02:48:20;1.58;;;1.00;;
1446;SDS011;717;51.522;7.266;2022-10-16T02:50:48;1.55;;;1.10;;
1446;SDS011;717;51.522;7.266;2022-10-16T02:53:16;2.78;;;1.30;;
1446;SDS011;717;51.522;7.266;2022-10-16T02:55:42;4.35;;;0.90;;
1446;SDS011;717;51.522;7.266;2022-10-16T02:58:09;2.15;;;0.90;;
1446;SDS011;717;51.522;7.266;2022-10-16T03:00:36;1.15;;;1.10;;
1446;SDS011;717;51.522;7.266;2022-10-16T03:03:03;1.88;;;0.90;;
1446;SDS011;717;51.522;7.266;2022-10-16T03:05:30;3.35;;;1.10;;
1446;SDS011;717;51.522;7.266;2022-10-16T03:07:58;0.93;;;0.80;;
1446;SDS011;717;51.522;7.266;2022-10-16T03:10:25;0.98;;;0.80;;
1446;SDS011;717;51.522;7.266;2022-10-16T03:12:52;2.00;;;1.20;;
1446;SDS011;717;51.522;7.266;2022-10-16T03:15:19;2.08;;;0.90;;
1446;SDS011;717;51.522;7.266;2022-10-16T03:17:46;0.70;;;0.70;;
1446;SDS011;717;51.522;7.266;2022-10-16T03:20:13;0.80;;;0.80;;
1446;SDS011;717;51.522;7.266;2022-10-16T03:22:39;1.30;;;1.20;;
1446;SDS011;717;51.522;7.266;2022-10-16T03:25:09;1.25;;;0.75;;
1446;SDS011;717;51.522;7.266;2022-10-16T03:27:36;0.93;;;0.70;;
1446;SDS011;717;51.522;7.266;2022-10-16T03:30:03;1.45;;;0.70;;
1446;SDS011;717;51.522;7.266;2022-10-16T03:32:30;2.13;;;0.88;;
1446;SDS011;717;51.522;7.266;2022-10-16T03:34:57;2.67;;;0.70;;
1446;SDS011;717;51.522;7.266;2022-10-16T03:37:24;1.48;;;0.73;;
1446;SDS011;717;51.522;7.266;2022-10-16T03:39:51;1.20;;;0.60;;
1446;SDS011;717;51.522;7.266;2022-10-16T03:42:20;0.85;;;0.60;;
1446;SDS011;717;51.522;7.266;2022-10-16T03:44:47;1.20;;;0.68;;
1446;SDS011;717;51.522;7.266;2022-10-16T03:47:14;1.38;;;0.77;;
1446;SDS011;717;51.522;7.266;2022-10-16T03:49:45;2.65;;;1.05;;
1446;SDS011;717;51.522;7.266;2022-10-16T03:52:12;1.23;;;0.70;;
1446;SDS011;717;51.522;7.266;2022-10-16T03:54:39;1.17;;;1.05;;
1446;SDS011;717;51.522;7.266;2022-10-16T03:57:06;0.75;;;0.60;;
1446;SDS011;717;51.522;7.266;2022-10-16T03:59:35;1.17;;;0.70;;
1446;SDS011;717;51.522;7.266;2022-10-16T04:02:02;0.85;;;0.68;;
1446;SDS011;717;51.522;7.266;2022-10-16T04:04:29;1.95;;;0.60;;
1446;SDS011;717;51.522;7.266;2022-10-16T04:06:55;1.52;;;0.70;;
1446;SDS011;717;51.522;7.266;2022-10-16T04:09:22;3.38;;;0.75;;
1446;SDS011;717;51.522;7.266;2022-10-16T04:11:49;0.80;;;0.60;;
1446;SDS011;717;51.522;7.266;2022-10-16T04:14:16;1.63;;;0.60;;
1446;SDS011;717;51.522;7.266;2022-10-16T04:16:45;0.80;;;0.50;;
1446;SDS011;717;51.522;7.266;2022-10-16T04:19:11;1.00;;;0.70;;
1446;SDS011;717;51.522;7.266;2022-10-16T04:21:38;1.48;;;0.70;;
1446;SDS011;717;51.522;7.266;2022-10-16T04:24:05;1.30;;;0.70;;
1446;SDS011;717;51.522;7.266;2022-10-16T04:26:32;0.70;;;0.70;;
1446;SDS011;717;51.522;7.266;2022-10-16T04:28:59;1.02;;;0.70;;
1446;SDS011;717;51.522;7.266;2022-10-16T04:31:26;0.90;;;0.65;;
1446;SDS011;717;51.522;7.266;2022-10-16T04:33:54;2.35;;;0.70;;
1446;SDS011;717;51.522;7.266;2022-10-16T04:36:21;1.25;;;0.70;;
1446;SDS011;717;51.522;7.266;2022-10-16T04:38:48;0.90;;;0.60;;
1446;SDS011;717;51.522;7.266;2022-10-16T04:41:15;1.02;;;0.80;;
1446;SDS011;717;51.522;7.266;2022-10-16T04:43:42;0.60;;;0.50;;
1446;SDS011;717;51.522;7.266;2022-10-16T04:46:09;0.85;;;0.63;;
1446;SDS011;717;51.522;7.266;2022-10-16T04:48:36;0.60;;;0.60;;
1446;SDS011;717;51.522;7.266;2022-10-16T04:51:04;1.60;;;0.50;;
1446;SDS011;717;51.522;7.266;2022-10-16T04:53:31;0.65;;;0.65;;
1446;SDS011;717;51.522;7.266;2022-10-16T04:55:58;0.95;;;0.50;;
1446;SDS011;717;51.522;7.266;2022-10-16T04:58:25;0.90;;;0.60;;
1446;SDS011;717;51.522;7.266;2022-10-16T05:00:52;0.52;;;0.52;;
1446;SDS011;717;51.522;7.266;2022-10-16T05:03:19;0.50;;;0.50;;
1446;SDS011;717;51.522;7.266;2022-10-16T05:05:46;0.60;;;0.60;;
1446;SDS011;717;51.522;7.266;2022-10-16T05:08:15;1.00;;;0.90;;
1446;SDS011;717;51.522;7.266;2022-10-16T05:10:42;1.55;;;0.50;;
1446;SDS011;717;51.522;7.266;2022-10-16T05:13:11;1.30;;;0.73;;
1446;SDS011;717;51.522;7.266;2022-10-16T05:15:38;1.25;;;0.50;;
1446;SDS011;717;51.522;7.266;2022-10-16T05:18:05;0.40;;;0.40;;
1446;SDS011;717;51.522;7.266;2022-10-16T05:20:32;0.70;;;0.60;;
1446;SDS011;717;51.522;7.266;2022-10-16T05:22:59;1.67;;;0.60;;
1446;SDS011;717;51.522;7.266;2022-10-16T05:25:27;0.60;;;0.60;;
1446;SDS011;717;51.522;7.266;2022-10-16T05:27:54;1.88;;;0.70;;
1446;SDS011;717;51.522;7.266;2022-10-16T05:30:21;1.58;;;0.65;;
1446;SDS011;717;51.522;7.266;2022-10-16T05:32:48;1.60;;;0.60;;
1446;SDS011;717;51.522;7.266;2022-10-16T05:35:16;2.50;;;0.80;;
1446;SDS011;717;51.522;7.266;2022-10-16T05:37:44;0.63;;;0.55;;
1446;SDS011;717;51.522;7.266;2022-10-16T05:40:11;1.42;;;0.65;;
1446;SDS011;717;51.522;7.266;2022-10-16T05:42:40;1.35;;;0.63;;
1446;SDS011;717;51.522;7.266;2022-10-16T05:45:08;0.95;;;0.57;;
1446;SDS011;717;51.522;7.266;2022-10-16T05:47:36;1.08;;;0.70;;
1446;SDS011;717;51.522;7.266;2022-10-16T05:50:03;0.70;;;0.60;;
1446;SDS011;717;51.522;7.266;2022-10-16T05:52:31;0.75;;;0.70;;
1446;SDS011;717;51.522;7.266;2022-10-16T05:54:58;1.50;;;0.70;;
1446;SDS011;717;51.522;7.266;2022-10-16T05:57:24;2.28;;;0.73;;
1446;SDS011;717;51.522;7.266;2022-10-16T05:59:53;0.98;;;0.60;;
1446;SDS011;717;51.522;7.266;2022-10-16T06:02:20;0.80;;;0.60;;
1446;SDS011;717;51.522;7.266;2022-10-16T06:04:47;0.80;;;0.60;;
1446;SDS011;717;51.522;7.266;2022-10-16T06:07:14;2.25;;;0.80;;
1446;SDS011;717;51.522;7.266;2022-10-16T06:09:40;0.98;;;0.60;;
1446;SDS011;717;51.522;7.266;2022-10-16T06:12:07;0.70;;;0.60;;
1446;SDS011;717;51.522;7.266;2022-10-16T06:14:34;1.33;;;0.90;;
1446;SDS011;717;51.522;7.266;2022-10-16T06:17:02;1.92;;;0.70;;
1446;SDS011;717;51.522;7.266;2022-10-16T06:19:29;1.70;;;0.70;;
1446;SDS011;717;51.522;7.266;2022-10-16T06:21:56;0.60;;;0.50;;
1446;SDS011;717;51.522;7.266;2022-10-16T06:24:24;0.73;;;0.70;;
1446;SDS011;717;51.522;7.266;2022-10-16T06:26:50;0.68;;;0.60;;
1446;SDS011;717;51.522;7.266;2022-10-16T06:29:17;1.15;;;0.60;;
1446;SDS011;717;51.522;7.266;2022-10-16T06:31:44;0.70;;;0.70;;
1446;SDS011;717;51.522;7.266;2022-10-16T06:34:12;0.63;;;0.63;;
1446;SDS011;717;51.522;7.266;2022-10-16T06:36:39;3.03;;;0.70;;
1446;SDS011;717;51.522;7.266;2022-10-16T06:39:06;0.70;;;0.57;;
1446;SDS011;717;51.522;7.266;2022-10-16T06:41:33;0.65;;;0.60;;
1446;SDS011;717;51.522;7.266;2022-10-16T06:44:00;1.38;;;0.75;;
1446;SDS011;717;51.522;7.266;2022-10-16T06:46:27;2.33;;;0.80;;
1446;SDS011;717;51.522;7.266;2022-10-16T06:48:54;1.40;;;0.82;;
1446;SDS011;717;51.522;7.266;2022-10-16T06:51:23;1.15;;;0.80;;
1446;SDS011;717;51.522;7.266;2022-10-16T06:53:51;1.48;;;0.85;;
1446;SDS011;717;51.522;7.266;2022-10-16T06:56:19;1.23;;;0.68;;
1446;SDS011;717;51.522;7.266;2022-10-16T06:58:48;1.00;;;0.70;;
1446;SDS011;717;51.522;7.266;2022-10-16T07:01:16;1.88;;;0.70;;
1446;SDS011;717;51.522;7.266;2022-10-16T07:03:45;1.20;;;0.63;;
1446;SDS011;717;51.522;7.266;2022-10-16T07:06:13;2.20;;;0.68;;
1446;SDS011;717;51.522;7.266;2022-10-16T07:08:43;1.42;;;0.80;;
1446;SDS011;717;51.522;7.266;2022-10-16T07:11:13;1.15;;;1.00;;
1446;SDS011;717;51.522;7.266;2022-10-16T07:13:42;1.40;;;0.80;;
1446;SDS011;717;51.522;7.266;2022-10-16T07:16:10;1.67;;;0.80;;
1446;SDS011;717;51.522;7.266;2022-10-16T07:18:38;3.00;;;0.80;;
1446;SDS011;717;51.522;7.266;2022-10-16T07:21:07;1.17;;;0.82;;
1446;SDS011;717;51.522;7.266;2022-10-16T07:23:36;1.08;;;0.70;;
1446;SDS011;717;51.522;7.266;2022-10-16T07:26:04;1.85;;;0.90;;
1446;SDS011;717;51.522;7.266;2022-10-16T07:28:32;2.75;;;0.90;;
1446;SDS011;717;51.522;7.266;2022-10-16T07:31:00;1.77;;;1.15;;
1446;SDS011;717;51.522;7.266;2022-10-16T07:33:27;1.23;;;0.90;;
1446;SDS011;717;51.522;7.266;2022-10-16T07:35:55;1.40;;;0.88;;
1446;SDS011;717;51.522;7.266;2022-10-16T07:38:22;2.65;;;1.00;;
1446;SDS011;717;51.522;7.266;2022-10-16T07:40:55;1.15;;;1.02;;
1446;SDS011;717;51.522;7.266;2022-10-16T07:43:24;2.22;;;1.13;;
1446;SDS011;717;51.522;7.266;2022-10-16T07:45:51;3.17;;;1.02;;
1446;SDS011;717;51.522;7.266;2022-10-16T07:48:18;1.60;;;1.10;;
1446;SDS011;717;51.522;7.266;2022-10-16T07:50:45;2.90;;;1.02;;
1446;SDS011;717;51.522;7.266;2022-10-16T07:53:12;2.88;;;1.05;;
1446;SDS011;717;51.522;7.266;2022-10-16T07:55:39;1.55;;;0.93;;
1446;SDS011;717;51.522;7.266;2022-10-16T07:58:06;2.28;;;1.02;;
1446;SDS011;717;51.522;7.266;2022-10-16T08:00:35;3.20;;;0.80;;
1446;SDS011;717;51.522;7.266;2022-10-16T08:03:02;3.17;;;1.10;;
1446;SDS011;717;51.522;7.266;2022-10-16T08:05:30;3.08;;;0.90;;
1446;SDS011;717;51.522;7.266;2022-10-16T08:07:58;1.65;;;0.80;;
1446;SDS011;717;51.522;7.266;2022-10-16T08:10:25;2.55;;;0.80;;
1446;SDS011;717;51.522;7.266;2022-10-16T08:12:53;1.38;;;0.90;;
1446;SDS011;717;51.522;7.266;2022-10-16T08:15:20;1.33;;;0.82;;
1446;SDS011;717;51.522;7.266;2022-10-16T08:17:55;1.23;;;0.60;;
1446;SDS011;717;51.522;7.266;2022-10-16T08:20:23;1.52;;;0.82;;
1446;SDS011;717;51.522;7.266;2022-10-16T08:22:51;1.40;;;0.90;;
1446;SDS011;717;51.522;7.266;2022-10-16T08:25:17;1.58;;;0.70;;
1446;SDS011;717;51.522;7.266;2022-10-16T08:27:44;1.00;;;0.77;;
1446;SDS011;717;51.522;7.266;2022-10-16T08:30:12;0.93;;;0.63;;
1446;SDS011;717;51.522;7.266;2022-10-16T08:32:39;2.28;;;0.80;;
1446;SDS011;717;51.522;7.266;2022-10-16T08:35:08;1.00;;;0.68;;
1446;SDS011;717;51.522;7.266;2022-10-16T08:37:35;0.70;;;0.70;;
1446;SDS011;717;51.522;7.266;2022-10-16T08:40:03;0.95;;;0.60;;
1446;SDS011;717;51.522;7.266;2022-10-16T08:42:34;1.80;;;0.70;;
1446;SDS011;717;51.522;7.266;2022-10-16T08:45:19;1.05;;;0.60;;
1446;SDS011;717;51.522;7.266;2022-10-16T08:47:55;2.78;;;0.65;;
1446;SDS011;717;51.522;7.266;2022-10-16T08:50:35;2.05;;;0.73;;
1446;SDS011;717;51.522;7.266;2022-10-16T08:53:03;1.55;;;0.68;;
1446;SDS011;717;51.522;7.266;2022-10-16T08:55:32;2.53;;;0.60;;
1446;SDS011;717;51.522;7.266;2022-10-16T08:58:08;1.33;;;0.60;;
1446;SDS011;717;51.522;7.266;2022-10-16T09:00:38;2.65;;;0.70;;
1446;SDS011;717;51.522;7.266;2022-10-16T09:03:07;1.05;;;0.52;;
1446;SDS011;717;51.522;7.266;2022-10-16T09:05:47;1.70;;;0.60;;
1446;SDS011;717;51.522;7.266;2022-10-16T09:08:28;2.78;;;0.80;;
1446;SDS011;717;51.522;7.266;2022-10-16T09:11:03;1.30;;;0.50;;
1446;SDS011;717;51.522;7.266;2022-10-16T09:13:39;2.25;;;0.55;;
1446;SDS011;717;51.522;7.266;2022-10-16T09:16:15;1.92;;;0.60;;
1446;SDS011;717;51.522;7.266;2022-10-16T09:18:48;2.17;;;0.73;;
1446;SDS011;717;51.522;7.266;2022-10-16T09:21:21;1.02;;;0.50;;
1446;SDS011;717;51.522;7.266;2022-10-16T09:23:51;2.00;;;0.68;;
1446;SDS011;717;51.522;7.266;2022-10-16T09:26:20;3.80;;;1.00;;
1446;SDS011;717;51.522;7.266;2022-10-16T09:28:47;0.98;;;0.50;;
1446;SDS011;717;51.522;7.266;2022-10-16T09:31:17;1.58;;;0.50;;
1446;SDS011;717;51.522;7.266;2022-10-16T09:33:47;0.95;;;0.73;;
1446;SDS011;717;51.522;7.266;2022-10-16T09:36:18;2.72;;;0.50;;
1446;SDS011;717;51.522;7.266;2022-10-16T09:38:48;2.42;;;0.57;;
1446;SDS011;717;51.522;7.266;2022-10-16T09:41:16;4.28;;;0.80;;
1446;SDS011;717;51.522;7.266;2022-10-16T09:43:49;1.70;;;0.65;;
1446;SDS011;717;51.522;7.266;2022-10-16T09:46:22;2.13;;;0.70;;
1446;SDS011;717;51.522;7.266;2022-10-16T09:48:53;1.67;;;0.50;;
1446;SDS011;717;51.522;7.266;2022-10-16T09:51:21;1.23;;;0.38;;
1446;SDS011;717;51.522;7.266;2022-10-16T09:53:54;2.50;;;0.50;;
1446;SDS011;717;51.522;7.266;2022-10-16T09:56:23;2.65;;;0.70;;
1446;SDS011;717;51.522;7.266;2022-10-16T09:58:51;1.33;;;0.40;;
1446;SDS011;717;51.522;7.266;2022-10-16T10:01:19;1.23;;;0.40;;
1446;SDS011;717;51.522;7.266;2022-10-16T10:03:48;2.22;;;0.63;;
1446;SDS011;717;51.522;7.266;2022-10-16T10:06:19;2.15;;;0.50;;
1446;SDS011;717;51.522;7.266;2022-10-16T10:11:43;2.13;;;0.50;;
1446;SDS011;717;51.522;7.266;2022-10-16T10:14:15;1.33;;;0.40;;
1446;SDS011;717;51.522;7.266;2022-10-16T10:16:45;1.45;;;0.40;;
1446;SDS011;717;51.522;7.266;2022-10-16T10:19:14;2.10;;;0.50;;
1446;SDS011;717;51.522;7.266;2022-10-16T10:21:42;1.02;;;0.60;;
1446;SDS011;717;51.522;7.266;2022-10-16T10:24:10;2.08;;;0.30;;
1446;SDS011;717;51.522;7.266;2022-10-16T10:26:39;2.05;;;0.40;;
1446;SDS011;717;51.522;7.266;2022-10-16T10:29:13;2.80;;;0.47;;
1446;SDS011;717;51.522;7.266;2022-10-16T10:31:51;1.98;;;0.45;;
1446;SDS011;717;51.522;7.266;2022-10-16T10:34:26;2.25;;;0.65;;
1446;SDS011;717;51.522;7.266;2022-10-16T10:37:08;2.13;;;0.40;;
1446;SDS011;717;51.522;7.266;2022-10-16T10:39:47;2.38;;;0.55;;
1446;SDS011;717;51.522;7.266;2022-10-16T10:42:24;1.98;;;0.50;;
1446;SDS011;717;51.522;7.266;2022-10-16T10:45:05;1.58;;;0.50;;
1446;SDS011;717;51.522;7.266;2022-10-16T10:47:45;3.45;;;0.60;;
1446;SDS011;717;51.522;7.266;2022-10-16T10:50:23;1.42;;;0.57;;
1446;SDS011;717;51.522;7.266;2022-10-16T10:52:59;1.90;;;0.57;;
1446;SDS011;717;51.522;7.266;2022-10-16T10:55:39;2.10;;;0.60;;
1446;SDS011;717;51.522;7.266;2022-10-16T11:01:14;0.98;;;0.55;;
1446;SDS011;717;51.522;7.266;2022-10-16T11:03:46;1.52;;;0.68;;
1446;SDS011;717;51.522;7.266;2022-10-16T11:06:28;1.40;;;0.68;;
1446;SDS011;717;51.522;7.266;2022-10-16T11:09:00;1.45;;;0.80;;
1446;SDS011;717;51.522;7.266;2022-10-16T11:11:35;1.42;;;0.70;;
1446;SDS011;717;51.522;7.266;2022-10-16T11:14:09;0.73;;;0.60;;
1446;SDS011;717;51.522;7.266;2022-10-16T11:16:43;1.83;;;0.68;;
1446;SDS011;717;51.522;7.266;2022-10-16T11:19:19;1.02;;;0.55;;
1446;SDS011;717;51.522;7.266;2022-10-16T11:21:55;1.67;;;0.60;;
1446;SDS011;717;51.522;7.266;2022-10-16T11:24:27;0.77;;;0.50;;
1446;SDS011;717;51.522;7.266;2022-10-16T11:27:04;1.60;;;0.43;;
1446;SDS011;717;51.522;7.266;2022-10-16T11:29:36;1.60;;;0.60;;
1446;SDS011;717;51.522;7.266;2022-10-16T11:32:15;1.85;;;0.60;;
1446;SDS011;717;51.522;7.266;2022-10-16T11:34:49;2.88;;;0.70;;
1446;SDS011;717;51.522;7.266;2022-10-16T11:37:20;1.17;;;0.50;;
1446;SDS011;717;51.522;7.266;2022-10-16T11:39:52;1.20;;;0.60;;
1446;SDS011;717;51.522;7.266;2022-10-16T11:42:25;1.52;;;0.57;;
1446;SDS011;717;51.522;7.266;2022-10-16T11:45:02;1.00;;;0.60;;
1446;SDS011;717;51.522;7.266;2022-10-16T11:47:40;1.05;;;0.65;;
1446;SDS011;717;51.522;7.266;2022-10-16T11:50:13;1.80;;;0.50;;
1446;SDS011;717;51.522;7.266;2022-10-16T11:52:48;0.98;;;0.50;;
1446;SDS011;717;51.522;7.266;2022-10-16T11:55:23;1.70;;;0.50;;
1446;SDS011;717;51.522;7.266;2022-10-16T11:57:57;1.05;;;0.30;;
1446;SDS011;717;51.522;7.266;2022-10-16T12:00:30;1.67;;;0.47;;
1446;SDS011;717;51.522;7.266;2022-10-16T12:03:04;0.73;;;0.43;;
1446;SDS011;717;51.522;7.266;2022-10-16T12:05:49;2.13;;;0.50;;
1446;SDS011;717;51.522;7.266;2022-10-16T12:08:23;0.85;;;0.50;;
1446;SDS011;717;51.522;7.266;2022-10-16T12:10:51;1.13;;;0.55;;
1446;SDS011;717;51.522;7.266;2022-10-16T12:13:30;1.30;;;0.50;;
1446;SDS011;717;51.522;7.266;2022-10-16T12:16:07;2.10;;;0.50;;
1446;SDS011;717;51.522;7.266;2022-10-16T12:18:47;2.00;;;0.45;;
1446;SDS011;717;51.522;7.266;2022-10-16T12:21:15;1.23;;;0.30;;
1446;SDS011;717;51.522;7.266;2022-10-16T12:23:47;1.27;;;0.40;;
1446;SDS011;717;51.522;7.266;2022-10-16T12:26:23;1.05;;;0.28;;
1446;SDS011;717;51.522;7.266;2022-10-16T12:28:51;2.28;;;0.45;;
1446;SDS011;717;51.522;7.266;2022-10-16T12:31:19;2.08;;;0.50;;
1446;SDS011;717;51.522;7.266;2022-10-16T12:33:53;1.25;;;0.38;;
1446;SDS011;717;51.522;7.266;2022-10-16T12:36:27;0.77;;;0.30;;
1446;SDS011;717;51.522;7.266;2022-10-16T12:38:56;1.30;;;0.20;;
1446;SDS011;717;51.522;7.266;2022-10-16T12:41:24;1.13;;;0.30;;
1446;SDS011;717;51.522;7.266;2022-10-16T12:43:52;1.30;;;0.20;;
1446;SDS011;717;51.522;7.266;2022-10-16T12:46:22;2.40;;;0.40;;
1446;SDS011;717;51.522;7.266;2022-10-16T12:49:04;2.08;;;0.40;;
1446;SDS011;717;51.522;7.266;2022-10-16T12:51:35;1.27;;;0.32;;
1446;SDS011;717;51.522;7.266;2022-10-16T12:54:03;0.52;;;0.30;;
1446;SDS011;717;51.522;7.266;2022-10-16T12:56:40;0.82;;;0.35;;
1446;SDS011;717;51.522;7.266;2022-10-16T12:59:17;0.60;;;0.25;;
1446;SDS011;717;51.522;7.266;2022-10-16T13:02:00;1.15;;;0.55;;
1446;SDS011;717;51.522;7.266;2022-10-16T13:05:09;1.73;;;0.40;;
1446;SDS011;717;51.522;7.266;2022-10-16T13:07:53;0.73;;;0.28;;
1446;SDS011;717;51.522;7.266;2022-10-16T13:10:28;2.72;;;0.45;;
1446;SDS011;717;51.522;7.266;2022-10-16T13:13:13;0.90;;;0.38;;
1446;SDS011;717;51.522;7.266;2022-10-16T13:16:01;2.40;;;0.40;;
1446;SDS011;717;51.522;7.266;2022-10-16T13:18:41;1.13;;;0.30;;
1446;SDS011;717;51.522;7.266;2022-10-16T13:21:18;2.88;;;0.40;;
1446;SDS011;717;51.522;7.266;2022-10-16T13:23:55;1.48;;;0.38;;
1446;SDS011;717;51.522;7.266;2022-10-16T13:26:31;1.50;;;0.40;;
1446;SDS011;717;51.522;7.266;2022-10-16T13:29:05;1.15;;;0.40;;
1446;SDS011;717;51.522;7.266;2022-10-16T13:31:32;2.47;;;0.50;;
1446;SDS011;717;51.522;7.266;2022-10-16T13:34:01;1.05;;;0.40;;
1446;SDS011;717;51.522;7.266;2022-10-16T13:36:29;1.95;;;0.68;;
1446;SDS011;717;51.522;7.266;2022-10-16T13:39:01;2.65;;;0.80;;
1446;SDS011;717;51.522;7.266;2022-10-16T13:41:35;5.20;;;0.80;;
1446;SDS011;717;51.522;7.266;2022-10-16T13:44:03;2.10;;;0.90;;
1446;SDS011;717;51.522;7.266;2022-10-16T13:46:31;1.02;;;0.52;;
1446;SDS011;717;51.522;7.266;2022-10-16T13:49:01;2.72;;;0.60;;
1446;SDS011;717;51.522;7.266;2022-10-16T13:51:39;2.95;;;0.80;;
1446;SDS011;717;51.522;7.266;2022-10-16T13:54:07;1.17;;;0.40;;
1446;SDS011;717;51.522;7.266;2022-10-16T13:56:36;0.65;;;0.30;;
1446;SDS011;717;51.522;7.266;2022-10-16T13:59:06;0.88;;;0.32;;
1446;SDS011;717;51.522;7.266;2022-10-16T14:01:48;1.65;;;0.55;;
1446;SDS011;717;51.522;7.266;2022-10-16T14:04:19;1.52;;;0.68;;
1446;SDS011;717;51.522;7.266;2022-10-16T14:06:46;3.65;;;0.50;;
1446;SDS011;717;51.522;7.266;2022-10-16T14:09:18;1.25;;;0.50;;
1446;SDS011;717;51.522;7.266;2022-10-16T14:11:49;0.88;;;0.40;;
1446;SDS011;717;51.522;7.266;2022-10-16T14:14:17;3.33;;;0.45;;
1446;SDS011;717;51.522;7.266;2022-10-16T14:16:45;0.57;;;0.40;;
1446;SDS011;717;51.522;7.266;2022-10-16T14:19:16;2.60;;;0.70;;
1446;SDS011;717;51.522;7.266;2022-10-16T14:21:48;0.40;;;0.20;;
1446;SDS011;717;51.522;7.266;2022-10-16T14:24:22;1.83;;;0.75;;
1446;SDS011;717;51.522;7.266;2022-10-16T14:26:52;2.38;;;0.50;;
1446;SDS011;717;51.522;7.266;2022-10-16T14:29:21;1.45;;;0.40;;
1446;SDS011;717;51.522;7.266;2022-10-16T14:31:55;1.65;;;0.75;;
1446;SDS011;717;51.522;7.266;2022-10-16T14:34:25;1.67;;;0.90;;
1446;SDS011;717;51.522;7.266;2022-10-16T14:36:55;2.55;;;0.45;;
1446;SDS011;717;51.522;7.266;2022-10-16T14:39:23;1.00;;;0.40;;
1446;SDS011;717;51.522;7.266;2022-10-16T14:41:54;3.13;;;0.40;;
1446;SDS011;717;51.522;7.266;2022-10-16T14:44:26;1.80;;;0.47;;
1446;SDS011;717;51.522;7.266;2022-10-16T14:46:55;0.50;;;0.25;;
1446;SDS011;717;51.522;7.266;2022-10-16T14:49:25;1.90;;;0.93;;
1446;SDS011;717;51.522;7.266;2022-10-16T14:51:53;1.50;;;0.60;;
1446;SDS011;717;51.522;7.266;2022-10-16T14:54:20;1.95;;;0.52;;
1446;SDS011;717;51.522;7.266;2022-10-16T14:56:47;0.70;;;0.30;;
1446;SDS011;717;51.522;7.266;2022-10-16T14:59:17;0.82;;;0.45;;
1446;SDS011;717;51.522;7.266;2022-10-16T15:01:48;1.10;;;0.50;;
1446;SDS011;717;51.522;7.266;2022-10-16T15:04:15;1.35;;;0.55;;
1446;SDS011;717;51.522;7.266;2022-10-16T15:06:44;2.00;;;0.60;;
1446;SDS011;717;51.522;7.266;2022-10-16T15:09:11;1.90;;;0.77;;
1446;SDS011;717;51.522;7.266;2022-10-16T15:11:38;1.75;;;0.65;;
1446;SDS011;717;51.522;7.266;2022-10-16T15:14:05;2.60;;;0.57;;
1446;SDS011;717;51.522;7.266;2022-10-16T15:16:32;2.50;;;1.25;;
1446;SDS011;717;51.522;7.266;2022-10-16T15:18:59;1.08;;;0.50;;
1446;SDS011;717;51.522;7.266;2022-10-16T15:21:26;1.35;;;0.60;;
1446;SDS011;717;51.522;7.266;2022-10-16T15:23:56;2.83;;;0.90;;
1446;SDS011;717;51.522;7.266;2022-10-16T15:26:24;4.68;;;1.30;;
1446;SDS011;717;51.522;7.266;2022-10-16T15:28:51;3.22;;;1.50;;
1446;SDS011;717;51.522;7.266;2022-10-16T15:31:18;2.97;;;1.50;;
1446;SDS011;717;51.522;7.266;2022-10-16T15:33:48;3.20;;;2.70;;
1446;SDS011;717;51.522;7.266;2022-10-16T15:36:24;4.07;;;3.70;;
1446;SDS011;717;51.522;7.266;2022-10-16T15:38:51;2.55;;;2.20;;
1446;SDS011;717;51.522;7.266;2022-10-16T15:41:20;2.38;;;1.35;;
1446;SDS011;717;51.522;7.266;2022-10-16T15:43:47;2.47;;;0.80;;
1446;SDS011;717;51.522;7.266;2022-10-16T15:46:15;2.95;;;0.80;;
1446;SDS011;717;51.522;7.266;2022-10-16T15:48:44;2.33;;;0.90;;
1446;SDS011;717;51.522;7.266;2022-10-16T15:51:11;3.13;;;0.90;;
1446;SDS011;717;51.522;7.266;2022-10-16T15:53:38;2.08;;;0.95;;
1446;SDS011;717;51.522;7.266;2022-10-16T15:56:05;2.33;;;0.90;;